Time;durP1;ratioP1;P1;durP2;ratioP2;P2;SDS_P1;SDS_P2;PMS_P1;PMS_P2;Temp;Humidity;BMP_temperature;BMP_pressure;BME280_temperature;BME280_humidity;BME280_pressure;Samples;Min_cycle;Max_cycle;Signal;HPM_P1;HPM_P2
2022/01/09 00:01:08;;;;;;;119.85;58.78;;;1.10;99.90;;;;;;5114739;28;20040;-63
2022/01/09 00:03:34;;;;;;;121.50;58.85;;;1.10;99.90;;;;;;5114442;28;20046;-63
2022/01/09 00:06:00;;;;;;;121.50;58.92;;;1.10;99.90;;;;;;5096367;28;20048;-63
2022/01/09 00:08:26;;;;;;;111.50;55.10;;;1.10;99.90;;;;;;5114803;28;20042;-63
2022/01/09 00:10:52;;;;;;;118.18;57.30;;;0.90;99.90;;;;;;5114534;28;20043;-63
2022/01/09 00:13:18;;;;;;;113.45;54.90;;;0.90;99.90;;;;;;5114475;28;20062;-63
2022/01/09 00:15:44;;;;;;;119.82;57.70;;;0.80;99.90;;;;;;5114386;28;20071;-62
2022/01/09 00:18:10;;;;;;;121.57;59.05;;;0.80;99.90;;;;;;5113388;28;20044;-63
2022/01/09 00:20:36;;;;;;;120.43;58.05;;;0.70;99.90;;;;;;5113761;28;20028;-63
2022/01/09 00:23:02;;;;;;;142.35;66.07;;;0.70;99.90;;;;;;5113474;28;20508;-63
2022/01/09 00:25:28;;;;;;;147.38;69.25;;;0.70;99.90;;;;;;5114415;28;20228;-63
2022/01/09 00:27:55;;;;;;;143.77;69.80;;;0.70;99.90;;;;;;5116795;28;20032;-63
2022/01/09 00:30:23;;;;;;;144.38;69.43;;;0.80;99.90;;;;;;5116907;28;20038;-63
2022/01/09 00:32:52;;;;;;;162.82;74.80;;;0.80;99.90;;;;;;5116731;28;20058;-63
2022/01/09 00:35:18;;;;;;;151.95;72.32;;;0.90;99.90;;;;;;5116925;28;20100;-63
2022/01/09 00:37:44;;;;;;;142.07;68.97;;;0.80;99.90;;;;;;5117011;28;20040;-63
2022/01/09 00:40:12;;;;;;;150.00;68.15;;;0.90;99.90;;;;;;5116904;28;20043;-63
2022/01/09 00:42:38;;;;;;;157.65;76.68;;;0.90;99.90;;;;;;5116790;28;20036;-63
2022/01/09 00:45:05;;;;;;;157.10;74.95;;;1.00;99.90;;;;;;5116663;28;20039;-62
2022/01/09 00:47:31;;;;;;;180.32;84.57;;;0.90;99.90;;;;;;5116568;28;20048;-62
2022/01/09 00:49:58;;;;;;;180.60;82.65;;;0.80;99.90;;;;;;5116705;28;20036;-63
2022/01/09 00:52:27;;;;;;;199.38;92.75;;;0.70;99.90;;;;;;5116540;28;20043;-63
2022/01/09 00:54:53;;;;;;;191.95;88.45;;;0.50;99.90;;;;;;5116515;28;20055;-63
2022/01/09 00:57:29;;;;;;;184.18;86.13;;;0.40;99.90;;;;;;5116241;28;20040;-62
2022/01/09 00:59:55;;;;;;;217.55;100.57;;;0.40;99.90;;;;;;5116196;28;20069;-63
2022/01/09 01:02:22;;;;;;;227.27;107.10;;;0.40;99.90;;;;;;5116597;28;20032;-62
2022/01/09 01:04:51;;;;;;;229.30;107.10;;;0.40;99.90;;;;;;5116538;28;20036;-62
2022/01/09 01:07:20;;;;;;;215.88;101.40;;;0.40;99.90;;;;;;5115866;28;20392;-63
2022/01/09 01:09:47;;;;;;;236.70;107.97;;;0.40;99.90;;;;;;5116563;28;20328;-63
2022/01/09 01:12:18;;;;;;;231.25;108.75;;;0.40;99.90;;;;;;5113004;28;20573;-63
2022/01/09 01:14:45;;;;;;;242.45;110.38;;;0.20;99.90;;;;;;5116301;28;20429;-62
2022/01/09 01:17:13;;;;;;;255.35;114.60;;;0.20;99.90;;;;;;5062944;28;1521737;-63
2022/01/09 01:19:40;;;;;;;262.75;122.10;;;0.10;99.90;;;;;;5096873;28;20478;-62
2022/01/09 01:22:06;;;;;;;271.83;125.45;;;0.10;99.90;;;;;;5096905;28;20474;-63
2022/01/09 01:24:36;;;;;;;288.02;129.30;;;0.10;99.90;;;;;;5097028;28;20039;-62
2022/01/09 01:27:02;;;;;;;280.52;128.48;;;0.10;99.90;;;;;;5096620;28;20554;-63
2022/01/09 01:29:29;;;;;;;282.17;127.10;;;0.10;99.90;;;;;;5096817;28;20511;-63
2022/01/09 01:31:55;;;;;;;271.00;121.80;;;0.10;99.90;;;;;;5102837;28;20491;-62
2022/01/09 01:34:27;;;;;;;243.13;109.63;;;0.10;99.90;;;;;;5117035;28;20047;-63
2022/01/09 01:36:54;;;;;;;256.13;115.28;;;0.10;99.90;;;;;;5116821;28;20039;-63
2022/01/09 01:39:29;;;;;;;307.15;141.55;;;0.30;99.90;;;;;;5137657;27;20042;-62
2022/01/09 01:41:55;;;;;;;289.27;127.75;;;0.30;99.90;;;;;;5137540;27;20035;-63
2022/01/09 01:44:25;;;;;;;298.52;136.23;;;0.30;99.90;;;;;;5137483;27;20031;-63
2022/01/09 01:46:52;;;;;;;299.57;135.27;;;0.20;99.90;;;;;;5137227;27;20110;-62
2022/01/09 01:49:19;;;;;;;329.15;140.43;;;0.20;99.90;;;;;;5137570;27;20464;-63
2022/01/09 01:51:46;;;;;;;338.60;139.65;;;0.20;99.90;;;;;;5137474;27;20392;-63
2022/01/09 01:54:14;;;;;;;291.85;129.50;;;0.30;99.90;;;;;;5137113;27;20461;-63
2022/01/09 01:56:40;;;;;;;270.48;125.07;;;0.40;99.90;;;;;;5137154;27;20027;-63
2022/01/09 01:59:07;;;;;;;274.42;127.55;;;0.40;99.90;;;;;;5137266;27;20035;-63
2022/01/09 02:01:36;;;;;;;276.42;127.22;;;0.40;99.90;;;;;;5137332;27;20038;-63
2022/01/09 02:04:05;;;;;;;273.95;126.05;;;0.40;99.90;;;;;;5136962;27;20397;-63
2022/01/09 02:06:38;;;;;;;345.73;142.50;;;0.50;99.90;;;;;;5136914;27;20042;-63
2022/01/09 02:09:04;;;;;;;449.90;169.88;;;0.50;99.90;;;;;;5137077;27;20114;-63
2022/01/09 02:11:33;;;;;;;403.15;158.75;;;0.50;99.90;;;;;;5136847;27;20062;-63
2022/01/09 02:14:02;;;;;;;381.10;158.32;;;0.60;99.90;;;;;;5119552;27;20036;-63
2022/01/09 02:16:29;;;;;;;361.55;152.68;;;0.40;99.90;;;;;;5116073;28;20051;-63
2022/01/09 02:18:58;;;;;;;338.13;149.05;;;0.40;99.90;;;;;;5116066;28;20062;-63
2022/01/09 02:21:26;;;;;;;309.45;136.35;;;0.30;99.90;;;;;;5116162;28;20040;-63
2022/01/09 02:23:52;;;;;;;369.13;146.23;;;0.40;99.90;;;;;;5116170;28;20035;-63
2022/01/09 02:26:24;;;;;;;336.80;142.20;;;0.50;99.90;;;;;;5115900;28;20054;-63
2022/01/09 02:28:51;;;;;;;334.95;137.65;;;0.50;99.90;;;;;;5116108;28;20064;-63
2022/01/09 02:31:17;;;;;;;294.10;133.05;;;0.40;99.90;;;;;;5115738;28;20034;-63
2022/01/09 02:33:43;;;;;;;311.02;132.55;;;0.50;99.90;;;;;;5115772;28;20474;-63
2022/01/09 02:36:09;;;;;;;321.65;133.18;;;0.60;99.90;;;;;;5115782;28;20035;-63
2022/01/09 02:38:36;;;;;;;503.55;169.82;;;0.60;99.90;;;;;;5115784;28;20070;-63
2022/01/09 02:41:02;;;;;;;349.45;136.38;;;0.60;99.90;;;;;;5115774;28;20417;-63
2022/01/09 02:43:28;;;;;;;444.40;155.50;;;0.60;99.90;;;;;;5115747;28;20081;-63
2022/01/09 02:46:06;;;;;;;440.65;150.57;;;0.60;99.90;;;;;;5115556;28;20038;-63
2022/01/09 02:48:35;;;;;;;430.13;151.05;;;0.60;99.90;;;;;;5115000;28;20086;-63
2022/01/09 02:51:20;;;;;;;474.90;160.73;;;0.60;99.90;;;;;;5115645;28;20036;-63
2022/01/09 02:53:48;;;;;;;385.77;144.88;;;0.70;99.90;;;;;;5115658;28;20043;-63
2022/01/09 02:56:15;;;;;;;405.02;156.45;;;0.70;99.90;;;;;;5115500;28;20043;-63
2022/01/09 02:58:42;;;;;;;426.40;164.82;;;0.70;99.90;;;;;;5115305;28;20032;-63
2022/01/09 03:01:10;;;;;;;417.15;156.88;;;0.70;99.90;;;;;;5115266;28;20035;-63
2022/01/09 03:03:37;;;;;;;312.10;126.45;;;0.70;99.90;;;;;;5115476;28;20034;-63
2022/01/09 03:06:03;;;;;;;325.50;133.18;;;0.70;99.90;;;;;;5115405;28;20031;-63
2022/01/09 03:08:30;;;;;;;286.23;116.88;;;0.70;99.90;;;;;;5115082;28;20469;-63
2022/01/09 03:10:56;;;;;;;252.80;112.15;;;0.70;99.90;;;;;;5115303;28;20099;-63
2022/01/09 03:13:22;;;;;;;248.32;108.45;;;0.60;99.90;;;;;;5115222;28;20118;-63
2022/01/09 03:15:48;;;;;;;262.52;112.97;;;0.70;99.90;;;;;;5115023;28;20031;-62
2022/01/09 03:18:14;;;;;;;260.05;112.82;;;0.70;99.90;;;;;;5115241;28;20032;-63
2022/01/09 03:20:41;;;;;;;251.50;109.78;;;0.70;99.90;;;;;;5115034;28;20066;-63
2022/01/09 03:23:07;;;;;;;234.10;105.03;;;0.70;99.90;;;;;;5115167;28;20590;-63
2022/01/09 03:25:34;;;;;;;237.45;106.38;;;0.70;99.90;;;;;;5115119;28;20051;-63
2022/01/09 03:28:01;;;;;;;223.00;102.95;;;0.70;99.90;;;;;;5114840;28;20039;-63
2022/01/09 03:30:27;;;;;;;236.90;104.35;;;0.70;99.90;;;;;;5115032;28;20028;-63
2022/01/09 03:32:54;;;;;;;215.88;101.47;;;0.80;99.90;;;;;;5114896;28;20032;-63
2022/01/09 03:35:22;;;;;;;213.20;98.90;;;0.80;99.90;;;;;;5115022;28;20042;-63
2022/01/09 03:37:49;;;;;;;185.80;88.82;;;0.80;99.90;;;;;;5115070;28;20032;-63
2022/01/09 03:40:19;;;;;;;174.15;80.60;;;0.70;99.90;;;;;;5114763;28;20043;-63
2022/01/09 03:42:49;;;;;;;180.38;83.82;;;0.80;99.90;;;;;;5114765;28;20096;-63
2022/01/09 03:45:15;;;;;;;;;;;0.80;99.90;;;;;;5115396;28;20164;-63
2022/01/09 03:47:42;;;;;;;183.30;84.90;;;0.80;99.90;;;;;;5114689;28;20427;-63
2022/01/09 03:50:11;;;;;;;161.93;80.28;;;0.70;99.90;;;;;;5114881;28;20498;-63
2022/01/09 03:52:39;;;;;;;173.80;82.72;;;0.70;99.90;;;;;;5114819;28;20039;-63
2022/01/09 03:55:07;;;;;;;178.05;86.90;;;0.70;99.90;;;;;;5114828;28;20043;-62
2022/01/09 03:57:33;;;;;;;178.05;82.05;;;0.70;99.90;;;;;;5114739;28;20032;-63
2022/01/09 03:59:59;;;;;;;164.75;79.57;;;0.70;99.90;;;;;;5117031;28;20043;-63
2022/01/09 04:02:25;;;;;;;162.68;78.43;;;0.70;99.90;;;;;;5118796;28;20043;-63
2022/01/09 04:04:51;;;;;;;165.32;79.95;;;0.70;99.90;;;;;;5118838;28;20031;-63
2022/01/09 04:07:17;;;;;;;157.07;77.03;;;0.60;99.90;;;;;;5118728;28;20046;-62
2022/01/09 04:09:45;;;;;;;159.07;77.68;;;0.60;99.90;;;;;;5118968;28;20032;-63
2022/01/09 04:12:18;;;;;;;145.73;70.28;;;0.60;99.90;;;;;;5118519;28;20031;-63
2022/01/09 04:14:48;;;;;;;149.98;71.63;;;0.60;99.90;;;;;;5118754;28;20060;-63
2022/01/09 04:17:27;;;;;;;146.82;70.90;;;0.60;99.90;;;;;;5118557;28;20058;-63
2022/01/09 04:19:53;;;;;;;139.75;70.97;;;0.50;99.90;;;;;;5097938;28;20218;-63
2022/01/09 04:22:19;;;;;;;145.63;70.22;;;0.60;99.90;;;;;;5098468;28;20047;-63
2022/01/09 04:24:45;;;;;;;145.27;73.18;;;0.60;99.90;;;;;;5098026;28;20044;-62
2022/01/09 04:27:11;;;;;;;150.30;70.32;;;0.60;99.90;;;;;;5097917;28;20036;-63
2022/01/09 04:29:37;;;;;;;150.73;72.03;;;0.50;99.90;;;;;;5097894;28;20121;-63
2022/01/09 04:32:03;;;;;;;151.02;71.13;;;0.40;99.90;;;;;;5105263;28;20032;-63
2022/01/09 04:34:29;;;;;;;141.07;69.93;;;0.40;99.90;;;;;;5118389;28;20038;-63
2022/01/09 04:36:59;;;;;;;148.05;71.88;;;0.50;99.90;;;;;;5118345;28;20107;-63
2022/01/09 04:39:26;;;;;;;143.55;71.45;;;0.50;99.90;;;;;;5118088;28;20043;-62
2022/01/09 04:41:53;;;;;;;152.63;73.32;;;0.50;99.90;;;;;;5138517;27;20038;-63
2022/01/09 04:44:19;;;;;;;149.45;70.93;;;0.50;99.90;;;;;;5138538;27;20031;-63
2022/01/09 04:46:52;;;;;;;148.52;74.20;;;0.50;99.90;;;;;;5138399;27;20370;-63
2022/01/09 04:49:22;;;;;;;140.05;70.40;;;0.50;99.90;;;;;;5138789;27;20122;-63
2022/01/09 04:51:48;;;;;;;152.45;75.35;;;0.50;99.90;;;;;;5138873;27;20031;-63
2022/01/09 04:54:14;;;;;;;158.82;73.93;;;0.50;99.90;;;;;;5138713;27;20385;-63
2022/01/09 04:56:40;;;;;;;151.48;73.88;;;0.50;99.90;;;;;;5138334;27;20043;-63
2022/01/09 04:59:06;;;;;;;150.00;73.25;;;0.50;99.90;;;;;;5138338;27;20031;-63
2022/01/09 05:01:32;;;;;;;147.50;69.85;;;0.50;99.90;;;;;;5138323;27;20114;-63
2022/01/09 05:03:58;;;;;;;144.30;70.43;;;0.60;99.90;;;;;;5138297;27;20063;-63
2022/01/09 05:06:24;;;;;;;137.32;65.68;;;0.50;99.90;;;;;;5138251;27;20044;-63
2022/01/09 05:08:50;;;;;;;142.48;68.00;;;0.60;99.90;;;;;;5138055;27;20051;-63
2022/01/09 05:11:16;;;;;;;144.25;69.32;;;0.60;99.90;;;;;;5137492;27;20031;-63
2022/01/09 05:13:42;;;;;;;143.05;67.75;;;0.50;99.90;;;;;;5123707;27;20062;-63
2022/01/09 05:16:08;;;;;;;136.70;66.55;;;0.50;99.90;;;;;;5098664;28;20043;-63
2022/01/09 05:18:49;;;;;;;135.75;65.63;;;0.50;99.90;;;;;;5117422;28;20047;-63
2022/01/09 05:21:15;;;;;;;128.68;61.95;;;0.50;99.90;;;;;;5117424;28;20089;-63
2022/01/09 05:23:41;;;;;;;129.95;63.25;;;0.50;99.90;;;;;;5116980;28;20043;-63
2022/01/09 05:26:07;;;;;;;134.40;65.05;;;0.50;99.90;;;;;;5117323;28;20035;-63
2022/01/09 05:28:33;;;;;;;133.77;65.38;;;0.50;99.90;;;;;;5117135;28;20504;-63
2022/01/09 05:30:59;;;;;;;144.15;66.40;;;0.50;99.90;;;;;;5117101;28;20107;-62
2022/01/09 05:33:25;;;;;;;141.45;67.75;;;0.40;99.90;;;;;;5116958;28;20031;-63
2022/01/09 05:35:51;;;;;;;142.07;65.97;;;0.40;99.90;;;;;;5116904;28;20406;-63
2022/01/09 05:38:18;;;;;;;146.43;66.85;;;0.40;99.90;;;;;;5117063;28;20064;-62
2022/01/09 05:40:45;;;;;;;140.40;67.32;;;0.30;99.90;;;;;;5116920;28;20039;-63
2022/01/09 05:43:12;;;;;;;137.77;65.85;;;0.40;99.90;;;;;;5116757;28;20054;-62
2022/01/09 05:45:39;;;;;;;134.88;64.47;;;0.40;99.90;;;;;;5116798;28;20050;-62
2022/01/09 05:48:06;;;;;;;135.57;63.90;;;0.40;99.90;;;;;;5116393;28;20127;-63
2022/01/09 05:50:33;;;;;;;135.13;63.50;;;0.50;99.90;;;;;;5116808;28;20043;-62
2022/01/09 05:53:00;;;;;;;136.98;63.25;;;0.50;99.90;;;;;;5116587;28;20496;-63
2022/01/09 05:55:26;;;;;;;126.25;64.13;;;0.50;99.90;;;;;;5115878;28;20401;-63
2022/01/09 05:57:52;;;;;;;143.38;65.55;;;0.40;99.90;;;;;;5116464;28;20034;-63
2022/01/09 06:00:18;;;;;;;142.27;67.85;;;0.40;99.90;;;;;;5116601;28;20035;-63
2022/01/09 06:02:44;;;;;;;140.57;65.90;;;0.40;99.90;;;;;;5116593;28;20120;-63
2022/01/09 06:05:10;;;;;;;132.18;62.17;;;0.40;99.90;;;;;;5116382;28;20035;-62
2022/01/09 06:07:40;;;;;;;131.98;65.47;;;0.30;99.90;;;;;;5116361;28;20040;-63
2022/01/09 06:10:07;;;;;;;132.10;66.95;;;0.40;99.90;;;;;;5116378;28;20107;-62
2022/01/09 06:12:33;;;;;;;137.60;65.65;;;0.40;99.90;;;;;;5116001;28;20028;-63
2022/01/09 06:14:59;;;;;;;135.57;65.15;;;0.40;99.90;;;;;;5116402;28;20453;-63
2022/01/09 06:17:25;;;;;;;143.93;65.75;;;0.40;99.90;;;;;;5116174;28;20071;-63
2022/01/09 06:19:52;;;;;;;133.00;63.15;;;0.30;99.90;;;;;;5116103;28;20366;-63
2022/01/09 06:22:18;;;;;;;142.20;65.70;;;0.30;99.90;;;;;;5115863;28;20043;-63
2022/01/09 06:24:51;;;;;;;140.35;68.00;;;0.20;99.90;;;;;;5115848;28;20047;-63
2022/01/09 06:27:18;;;;;;;131.10;64.95;;;0.20;99.90;;;;;;5115870;28;20042;-63
2022/01/09 06:29:44;;;;;;;135.82;65.85;;;0.20;99.90;;;;;;5116165;28;20035;-62
2022/01/09 06:32:10;;;;;;;143.15;68.53;;;0.10;99.90;;;;;;5115941;28;20122;-63
2022/01/09 06:34:36;;;;;;;142.00;65.50;;;0.10;99.90;;;;;;5115725;28;20071;-63
2022/01/09 06:37:03;;;;;;;135.50;62.70;;;0.00;99.90;;;;;;5115997;28;20091;-63
2022/01/09 06:39:29;;;;;;;140.68;62.88;;;-0.20;99.90;;;;;;5115926;28;20474;-63
2022/01/09 06:41:55;;;;;;;134.65;64.65;;;-0.20;99.90;;;;;;5115698;28;20035;-63
2022/01/09 06:44:21;;;;;;;131.63;63.65;;;-0.20;99.90;;;;;;5115656;28;20027;-63
2022/01/09 06:46:47;;;;;;;157.77;70.57;;;-0.10;99.90;;;;;;5115487;28;20115;-63
2022/01/09 06:49:13;;;;;;;145.80;68.57;;;-0.10;99.90;;;;;;5115607;28;20434;-63
2022/01/09 06:51:39;;;;;;;138.77;66.47;;;-0.20;99.90;;;;;;5115375;28;20151;-63
2022/01/09 06:54:13;;;;;;;153.50;71.78;;;-0.20;99.90;;;;;;5071867;28;20363;-61
2022/01/09 06:56:40;;;;;;;167.85;77.10;;;-0.20;99.90;;;;;;5071633;28;20060;-61
2022/01/09 06:59:06;;;;;;;185.27;86.25;;;-0.30;99.90;;;;;;5071834;28;20024;-62
2022/01/09 07:01:32;;;;;;;200.80;92.53;;;-0.40;99.90;;;;;;5071764;28;20021;-61
2022/01/09 07:03:57;;;;;;;233.57;106.88;;;-0.40;99.90;;;;;;5071785;28;20379;-61
2022/01/09 07:06:23;;;;;;;192.43;89.00;;;-0.40;99.90;;;;;;5071479;28;20028;-61
2022/01/09 07:08:49;;;;;;;175.70;83.55;;;-0.40;99.90;;;;;;5071643;28;20528;-62
2022/01/09 07:11:15;;;;;;;150.57;70.90;;;-0.20;99.90;;;;;;5071913;28;20374;-61
2022/01/09 07:13:42;;;;;;;134.85;65.10;;;0.40;99.90;;;;;;5071332;28;20028;-62
2022/01/09 07:16:08;;;;;;;137.10;66.68;;;1.10;99.90;;;;;;5071168;28;20390;-62
2022/01/09 07:18:34;;;;;;;137.18;68.53;;;1.70;99.90;;;;;;5071338;28;20028;-62
2022/01/09 07:21:00;;;;;;;168.07;76.72;;;2.00;99.90;;;;;;5071359;28;20449;-62
2022/01/09 07:23:26;;;;;;;154.65;69.22;;;2.60;99.90;;;;;;5071082;28;20071;-62
2022/01/09 07:25:52;;;;;;;120.88;61.35;;;3.50;99.90;;;;;;5071339;28;20028;-63
2022/01/09 07:28:17;;;;;;;120.38;61.45;;;3.90;99.90;;;;;;5071132;28;20055;-63
2022/01/09 07:30:43;;;;;;;127.32;64.13;;;4.20;99.90;;;;;;5071387;28;20045;-63
2022/01/09 07:33:10;;;;;;;122.75;61.17;;;4.40;99.90;;;;;;5070980;28;20062;-63
2022/01/09 07:35:36;;;;;;;123.57;61.72;;;4.90;99.90;;;;;;5071046;28;20099;-63
2022/01/09 07:38:02;;;;;;;128.98;61.58;;;5.40;99.90;;;;;;5070856;28;20044;-64
2022/01/09 07:40:28;;;;;;;130.55;61.15;;;5.40;99.90;;;;;;5070975;28;20359;-64
2022/01/09 07:42:54;;;;;;;135.18;65.25;;;5.20;99.90;;;;;;5070904;28;20033;-64
2022/01/09 07:45:25;;;;;;;115.88;61.60;;;5.50;99.90;;;;;;5070623;28;20028;-64
2022/01/09 07:47:58;;;;;;;124.00;62.33;;;5.80;99.90;;;;;;5070740;28;20025;-64
2022/01/09 07:50:24;;;;;;;127.88;63.47;;;5.90;99.90;;;;;;5070613;28;20036;-65
2022/01/09 07:52:51;;;;;;;128.35;65.10;;;6.50;99.90;;;;;;5070254;28;20079;-65
2022/01/09 07:55:19;;;;;;;142.40;70.07;;;6.40;99.90;;;;;;5070617;28;20025;-65
2022/01/09 07:57:45;;;;;;;154.95;76.15;;;6.60;99.90;;;;;;5070541;28;20100;-65
2022/01/09 08:00:12;;;;;;;138.57;68.93;;;7.50;98.90;;;;;;5070569;28;20067;-65
2022/01/09 08:02:42;;;;;;;141.38;68.85;;;7.30;98.70;;;;;;5070506;28;20037;-65
2022/01/09 08:05:10;;;;;;;124.63;61.63;;;7.10;99.00;;;;;;5059521;28;20048;-66
2022/01/09 08:07:36;;;;;;;119.22;61.53;;;7.70;98.20;;;;;;5057020;28;20025;-66
2022/01/09 08:10:03;;;;;;;125.38;62.80;;;7.40;98.20;;;;;;5057355;28;20454;-66
2022/01/09 08:12:29;;;;;;;135.40;67.70;;;7.70;97.80;;;;;;5056710;28;20383;-65
2022/01/09 08:14:55;;;;;;;144.23;74.70;;;8.00;96.80;;;;;;5056945;28;20025;-65
2022/01/09 08:17:21;;;;;;;152.15;79.95;;;7.80;97.00;;;;;;5056963;28;20033;-65
2022/01/09 08:19:47;;;;;;;164.30;88.85;;;8.30;97.00;;;;;;5057073;28;20028;-65
2022/01/09 08:22:13;;;;;;;164.77;85.05;;;8.60;95.00;;;;;;5056720;28;20036;-65
2022/01/09 08:24:39;;;;;;;151.63;80.50;;;8.60;95.40;;;;;;5056854;28;20028;-65
2022/01/09 08:27:06;;;;;;;159.43;85.93;;;9.00;95.30;;;;;;5056511;28;20063;-65
2022/01/09 08:29:32;;;;;;;156.38;84.32;;;9.70;92.30;;;;;;5056854;28;20372;-65
2022/01/09 08:31:59;;;;;;;158.90;82.18;;;9.70;94.00;;;;;;5056397;28;20115;-65
2022/01/09 08:34:24;;;;;;;146.48;78.60;;;10.50;91.50;;;;;;5056445;28;20021;-65
2022/01/09 08:36:50;;;;;;;149.95;78.95;;;10.00;92.40;;;;;;5056652;28;20031;-65
2022/01/09 08:39:17;;;;;;;142.73;75.88;;;10.20;90.20;;;;;;5056651;28;20033;-65
2022/01/09 08:41:43;;;;;;;147.60;77.35;;;10.20;91.30;;;;;;5056330;28;20028;-65
2022/01/09 08:44:09;;;;;;;147.23;77.25;;;9.90;91.40;;;;;;5056560;28;20486;-65
2022/01/09 08:46:36;;;;;;;129.02;68.90;;;9.60;92.90;;;;;;5056174;28;20025;-65
2022/01/09 08:49:04;;;;;;;132.05;72.60;;;10.10;91.00;;;;;;5056311;28;20035;-65
2022/01/09 08:51:30;;;;;;;126.43;69.47;;;10.80;87.00;;;;;;5056419;28;20029;-65
2022/01/09 08:53:58;;;;;;;130.85;69.90;;;10.50;91.40;;;;;;5056053;28;20056;-65
2022/01/09 08:56:26;;;;;;;115.95;66.05;;;11.20;85.50;;;;;;5056124;28;20473;-65
2022/01/09 08:58:52;;;;;;;115.75;63.25;;;10.70;85.90;;;;;;5056194;28;20360;-65
2022/01/09 09:01:18;;;;;;;120.05;64.32;;;10.40;90.00;;;;;;5056392;28;20025;-64
2022/01/09 09:03:45;;;;;;;119.15;60.80;;;9.80;91.00;;;;;;5055962;28;20067;-65
2022/01/09 09:06:13;;;;;;;113.82;57.97;;;9.30;93.60;;;;;;5056056;28;20029;-64
2022/01/09 09:08:40;;;;;;;109.30;59.72;;;9.70;93.50;;;;;;5055948;28;20025;-65
2022/01/09 09:11:07;;;;;;;103.95;56.15;;;10.30;92.40;;;;;;5055564;28;20025;-65
2022/01/09 09:13:35;;;;;;;105.55;57.50;;;10.70;86.90;;;;;;5056055;28;20025;-64
2022/01/09 09:16:01;;;;;;;100.15;55.22;;;10.30;90.00;;;;;;5054990;28;20029;-64
2022/01/09 09:18:28;;;;;;;102.93;56.10;;;10.10;91.70;;;;;;5055607;28;20414;-65
2022/01/09 09:20:54;;;;;;;101.25;53.60;;;10.30;90.00;;;;;;5054825;28;20500;-64
2022/01/09 09:23:20;;;;;;;87.28;46.35;;;10.60;82.60;;;;;;5055661;28;20475;-65
2022/01/09 09:25:47;;;;;;;96.80;50.97;;;11.00;81.40;;;;;;5055599;28;20021;-64
2022/01/09 09:28:14;;;;;;;97.50;55.38;;;11.50;79.10;;;;;;5055520;28;20040;-64
2022/01/09 09:30:40;;;;;;;103.93;57.47;;;11.60;71.50;;;;;;5055679;28;20029;-64
2022/01/09 09:33:06;;;;;;;125.82;68.28;;;11.20;78.80;;;;;;5055279;28;20032;-64
2022/01/09 09:35:33;;;;;;;135.25;75.47;;;11.60;74.10;;;;;;5055536;28;20116;-64
2022/01/09 09:38:00;;;;;;;156.02;81.75;;;12.00;67.70;;;;;;5055341;28;20029;-64
2022/01/09 09:40:26;;;;;;;128.82;71.00;;;12.00;75.00;;;;;;5055205;28;20040;-64
2022/01/09 09:42:52;;;;;;;130.50;68.93;;;12.50;63.40;;;;;;5055135;28;20029;-64
2022/01/09 09:45:19;;;;;;;114.57;64.32;;;13.00;64.40;;;;;;5055264;28;20025;-64
2022/01/09 09:47:45;;;;;;;115.85;63.50;;;12.00;63.10;;;;;;5055212;28;20035;-64
2022/01/09 09:50:14;;;;;;;128.48;70.60;;;12.00;68.50;;;;;;5055181;28;20087;-64
2022/01/09 09:52:41;;;;;;;139.85;75.07;;;12.00;72.40;;;;;;5053501;28;20043;-64
2022/01/09 09:55:08;;;;;;;134.68;71.75;;;11.60;72.10;;;;;;5055411;28;20033;-64
2022/01/09 09:57:34;;;;;;;141.02;74.95;;;12.70;63.10;;;;;;5054951;28;20053;-64
2022/01/09 10:00:08;;;;;;;149.82;83.40;;;12.50;64.20;;;;;;5055107;28;20021;-64
2022/01/09 10:02:46;;;;;;;138.40;76.82;;;12.50;66.90;;;;;;5055154;28;20048;-64
2022/01/09 10:05:15;;;;;;;129.80;71.75;;;12.00;66.00;;;;;;5053678;28;20116;-64
2022/01/09 10:07:41;;;;;;;141.73;77.22;;;12.20;62.30;;;;;;5054747;28;20129;-64
2022/01/09 10:10:14;;;;;;;146.35;78.50;;;11.50;72.70;;;;;;5054820;28;20060;-64
2022/01/09 10:12:41;;;;;;;145.43;72.70;;;11.80;74.00;;;;;;5054614;28;20090;-64
2022/01/09 10:15:11;;;;;;;112.57;63.33;;;11.20;75.00;;;;;;5054903;28;20020;-64
2022/01/09 10:17:50;;;;;;;113.83;62.10;;;11.80;70.20;;;;;;5054949;28;20118;-63
2022/01/09 10:20:22;;;;;;;142.25;76.18;;;12.00;65.60;;;;;;5054709;28;20023;-64
2022/01/09 10:22:54;;;;;;;143.48;76.72;;;12.60;67.00;;;;;;5054695;28;20056;-64
2022/01/09 10:25:30;;;;;;;104.10;57.83;;;12.90;63.20;;;;;;5054471;28;20029;-64
2022/01/09 10:28:09;;;;;;;109.15;61.28;;;12.80;58.30;;;;;;5054057;28;20035;-64
2022/01/09 10:30:44;;;;;;;105.32;56.42;;;12.20;68.20;;;;;;5054512;28;20107;-63
2022/01/09 10:33:17;;;;;;;98.82;53.38;;;12.60;62.60;;;;;;5054349;28;20048;-63
2022/01/09 10:35:46;;;;;;;110.45;58.40;;;12.10;62.80;;;;;;5054286;28;20029;-63
2022/01/09 10:38:22;;;;;;;100.88;55.05;;;12.20;68.40;;;;;;5054795;28;20029;-63
2022/01/09 10:41:03;;;;;;;103.72;57.65;;;12.30;63.40;;;;;;5054391;28;20033;-63
2022/01/09 10:43:34;;;;;;;;;;;11.60;70.30;;;;;;5054588;28;20039;-63
2022/01/09 10:46:00;;;;;;;102.57;53.28;;;11.70;76.30;;;;;;5054266;28;19909;-63
2022/01/09 10:48:34;;;;;;;96.57;54.20;;;12.50;66.00;;;;;;5054074;28;20532;-63
2022/01/09 10:51:02;;;;;;;104.35;55.72;;;11.70;76.40;;;;;;5054073;28;20387;-64
2022/01/09 10:53:30;;;;;;;99.20;52.80;;;11.40;76.40;;;;;;5053903;28;20128;-63
2022/01/09 10:56:09;;;;;;;99.97;56.13;;;11.60;77.80;;;;;;5054161;28;20044;-63
2022/01/09 10:58:38;;;;;;;94.47;51.90;;;11.40;78.30;;;;;;5053984;28;20055;-63
2022/01/09 11:01:09;;;;;;;90.90;50.80;;;11.10;81.10;;;;;;5054171;28;20025;-63
2022/01/09 11:03:36;;;;;;;96.78;50.33;;;11.00;82.30;;;;;;5053989;28;20025;-63
2022/01/09 11:06:03;;;;;;;93.03;52.25;;;10.90;89.50;;;;;;5054094;28;20029;-63
2022/01/09 11:08:30;;;;;;;94.03;50.22;;;10.80;85.90;;;;;;5053989;28;20068;-63
2022/01/09 11:10:58;;;;;;;98.90;53.75;;;11.00;88.60;;;;;;5053911;28;20371;-63
2022/01/09 11:13:26;;;;;;;93.07;49.78;;;12.20;79.80;;;;;;5053985;28;20115;-62
2022/01/09 11:18:40;;;;;;;89.25;50.55;;;11.80;78.20;;;;;;5054000;28;20028;-63
2022/01/09 11:21:06;;;;;;;89.60;50.95;;;11.80;77.90;;;;;;5054064;28;20033;-63
2022/01/09 11:23:58;;;;;;;103.07;49.38;;;12.20;83.20;;;;;;5053958;28;20029;-63
2022/01/09 11:26:32;;;;;;;79.60;44.13;;;12.60;74.50;;;;;;5053776;28;20390;-63
2022/01/09 11:28:58;;;;;;;70.55;40.35;;;12.60;62.80;;;;;;5053731;28;20389;-63
2022/01/09 11:31:50;;;;;;;69.38;39.80;;;12.40;67.30;;;;;;5053805;28;20037;-63
2022/01/09 11:34:42;;;;;;;69.32;38.88;;;12.30;68.60;;;;;;5051527;28;20418;-63
2022/01/09 11:37:34;;;;;;;65.70;37.45;;;12.50;69.60;;;;;;5037786;28;20040;-63
2022/01/09 11:40:01;;;;;;;73.55;39.85;;;13.00;60.80;;;;;;5055871;28;20033;-63
2022/01/09 11:42:27;;;;;;;75.80;39.20;;;13.00;62.10;;;;;;5057552;28;20017;-63
2022/01/09 11:44:55;;;;;;;71.20;38.67;;;13.40;58.90;;;;;;5057391;28;20493;-63
2022/01/09 11:47:23;;;;;;;68.90;37.65;;;12.70;60.90;;;;;;5057299;28;20029;-63
2022/01/09 11:49:57;;;;;;;62.05;35.88;;;13.00;64.30;;;;;;5057388;28;20383;-63
2022/01/09 11:52:25;;;;;;;69.95;36.38;;;13.20;60.60;;;;;;5057165;28;20045;-63
2022/01/09 11:54:56;;;;;;;62.72;34.10;;;14.00;56.60;;;;;;5057276;28;20036;-63
2022/01/09 11:57:46;;;;;;;59.42;34.50;;;13.80;54.80;;;;;;5057419;28;20486;-63
2022/01/09 12:00:32;;;;;;;68.85;35.83;;;13.70;56.20;;;;;;5057372;28;20029;-63
2022/01/09 12:02:58;;;;;;;68.18;36.08;;;13.80;56.00;;;;;;5057197;28;20103;-62
2022/01/09 12:05:24;;;;;;;62.50;34.28;;;12.80;59.50;;;;;;5057088;28;20044;-62
2022/01/09 12:07:54;;;;;;;59.00;37.47;;;12.90;61.70;;;;;;5056903;28;20056;-63
2022/01/09 12:10:35;;;;;;;74.80;36.65;;;12.80;62.40;;;;;;5057066;28;20021;-63
2022/01/09 12:13:06;;;;;;;62.22;35.92;;;13.50;58.20;;;;;;5056877;28;20068;-63
2022/01/09 12:15:33;;;;;;;76.13;37.35;;;13.30;58.40;;;;;;5056780;28;20021;-63
2022/01/09 12:18:00;;;;;;;59.22;33.40;;;13.00;62.30;;;;;;5056958;28;20484;-63
2022/01/09 12:20:28;;;;;;;64.03;34.55;;;13.40;59.80;;;;;;5056808;28;20029;-63
2022/01/09 12:23:03;;;;;;;64.50;35.38;;;13.70;58.40;;;;;;5056952;28;20036;-62
2022/01/09 12:25:35;;;;;;;57.13;33.97;;;13.80;56.40;;;;;;5056811;28;20025;-62
2022/01/09 12:28:18;;;;;;;58.63;33.20;;;13.10;56.90;;;;;;5056727;28;20036;-62
2022/01/09 12:30:52;;;;;;;58.28;32.90;;;12.90;57.80;;;;;;5056553;28;20036;-62